createdAt,value
2019-03-02T00:05:07.757Z,101105.83
2019-03-02T00:07:36.675Z,101105.83
2019-03-02T00:10:09.989Z,101104.12
2019-03-02T00:12:39.485Z,101105.44
2019-03-02T00:15:11.318Z,101108.80
2019-03-02T00:17:40.293Z,101105.33
2019-03-02T00:20:14.744Z,101109.23
2019-03-02T00:22:44.969Z,101115.63
2019-03-02T00:25:16.775Z,101117.29
2019-03-02T00:27:45.392Z,101114.00
2019-03-02T00:30:17.711Z,101113.60
2019-03-02T00:32:49.981Z,101120.03
2019-03-02T00:35:18.552Z,101114.83
2019-03-02T00:37:47.080Z,101119.16
2019-03-02T00:40:18.400Z,101116.64
2019-03-02T00:42:51.970Z,101112.34
2019-03-02T00:45:20.752Z,101108.02
2019-03-02T00:47:49.365Z,101102.08
2019-03-02T00:50:20.952Z,101108.08
2019-03-02T00:52:49.576Z,101109.71
2019-03-02T00:55:20.853Z,101101.17
2019-03-02T00:57:50.726Z,101095.16
2019-03-02T01:00:22.802Z,101101.16
2019-03-02T01:02:51.718Z,101096.88
2019-03-02T01:05:20.339Z,101097.38
2019-03-02T01:07:52.044Z,101099.95
2019-03-02T01:10:23.676Z,101096.46
2019-03-02T01:12:55.835Z,101094.79
2019-03-02T01:15:27.396Z,101092.63
2019-03-02T01:17:56.000Z,101088.39
2019-03-02T01:20:28.693Z,101086.71
2019-03-02T01:23:01.021Z,101077.23
2019-03-02T01:25:33.027Z,101081.92
2019-03-02T01:28:06.653Z,101088.28
2019-03-02T01:30:40.528Z,101089.98
2019-03-02T01:33:15.426Z,101093.39
2019-03-02T01:35:47.173Z,101090.98
2019-03-02T01:38:19.542Z,101090.14
2019-03-02T01:40:50.896Z,101097.88
2019-03-02T01:43:22.261Z,101088.44
2019-03-02T01:45:54.029Z,101094.81
2019-03-02T01:48:26.634Z,101091.83
2019-03-02T01:50:56.072Z,101086.72
2019-03-02T01:53:24.949Z,101095.79
2019-03-02T01:55:56.365Z,101083.30
2019-03-02T01:58:28.067Z,101083.77
2019-03-02T02:00:57.943Z,101086.36
2019-03-02T02:03:26.491Z,101073.53
2019-03-02T02:05:57.798Z,101079.91
2019-03-02T02:08:29.809Z,101075.63
2019-03-02T02:11:01.878Z,101076.84
2019-03-02T02:13:33.475Z,101079.52
2019-03-02T02:16:05.792Z,101080.81
2019-03-02T02:18:39.801Z,101081.22
2019-03-02T02:21:09.957Z,101078.61
2019-03-02T02:23:41.440Z,101071.33
2019-03-02T02:26:13.122Z,101069.17
2019-03-02T02:28:41.736Z,101066.09
2019-03-02T02:31:10.343Z,101067.39
2019-03-02T02:33:43.250Z,101070.42
2019-03-02T02:36:14.166Z,101065.80
2019-03-02T02:38:43.914Z,101055.55
2019-03-02T02:41:22.413Z,101064.09
2019-03-02T02:43:48.364Z,101054.11
2019-03-02T02:46:19.889Z,101055.00
2019-03-02T02:48:48.601Z,101044.28
2019-03-02T02:51:20.236Z,101041.31
2019-03-02T02:53:48.782Z,101042.09
2019-03-02T02:56:21.483Z,101041.63
2019-03-02T02:58:55.619Z,101040.36
2019-03-02T03:01:20.441Z,101039.89
2019-03-02T03:03:48.997Z,101033.53
2019-03-02T03:06:20.337Z,101033.53
2019-03-02T03:08:48.958Z,101030.21
2019-03-02T03:11:20.430Z,101029.78
2019-03-02T03:13:51.760Z,101033.91
2019-03-02T03:16:20.530Z,101031.73
2019-03-02T03:18:53.590Z,101036.50
2019-03-02T03:21:27.830Z,101031.38
2019-03-02T03:24:03.274Z,101031.42
2019-03-02T03:26:30.962Z,101038.77
2019-03-02T03:29:05.235Z,101033.56
2019-03-02T03:31:31.980Z,101029.26
2019-03-02T03:34:03.430Z,101034.39
2019-03-02T03:36:34.083Z,101031.45
2019-03-02T03:39:06.754Z,101028.85
2019-03-02T03:41:42.855Z,101029.73
2019-03-02T03:44:07.049Z,101033.09
2019-03-02T03:46:39.804Z,101035.71
2019-03-02T03:49:11.337Z,101036.53
2019-03-02T03:51:42.717Z,101029.16
2019-03-02T03:54:11.328Z,101029.66
2019-03-02T03:56:44.389Z,101028.72
2019-03-02T03:59:14.186Z,101026.53
2019-03-02T04:01:44.788Z,101024.46
2019-03-02T04:04:16.618Z,101031.25
2019-03-02T04:06:48.361Z,101026.16
2019-03-02T04:09:17.198Z,101025.81
2019-03-02T04:11:45.769Z,101030.16
2019-03-02T04:14:19.186Z,101033.55
2019-03-02T04:16:50.284Z,101035.58
2019-03-02T04:19:24.922Z,101032.65
2019-03-02T04:21:56.227Z,101031.86
2019-03-02T04:24:27.625Z,101027.89
2019-03-02T04:26:58.902Z,101035.09
2019-03-02T04:29:27.474Z,101026.16
2019-03-02T04:31:59.374Z,101024.22
2019-03-02T04:34:30.679Z,101030.97
2019-03-02T04:37:02.355Z,101030.47
2019-03-02T04:39:30.976Z,101029.26
2019-03-02T04:42:02.771Z,101024.50
2019-03-02T04:44:34.450Z,101025.26
2019-03-02T04:47:06.144Z,101023.25
2019-03-02T04:49:34.758Z,101020.81
2019-03-02T04:52:11.576Z,101026.76
2019-03-02T04:54:39.469Z,101021.55
2019-03-02T04:57:08.075Z,101015.61
2019-03-02T04:59:39.467Z,101012.59
2019-03-02T05:02:11.108Z,101013.00
2019-03-02T05:04:42.523Z,101015.98
2019-03-02T05:07:14.009Z,101014.72
2019-03-02T05:09:42.642Z,101019.01
2019-03-02T05:12:14.615Z,101013.31
2019-03-02T05:14:43.891Z,101017.97
2019-03-02T05:17:12.605Z,101012.52
2019-03-02T05:19:41.217Z,101018.57
2019-03-02T05:22:15.551Z,101020.31
2019-03-02T05:24:45.642Z,101020.36
2019-03-02T05:27:17.180Z,101019.13
2019-03-02T05:29:50.693Z,101013.90
2019-03-02T05:32:19.714Z,101012.99
2019-03-02T05:34:48.348Z,101014.66
2019-03-02T05:37:19.826Z,101016.87
2019-03-02T05:39:52.862Z,101020.17
2019-03-02T05:42:24.250Z,101013.45
2019-03-02T05:44:55.946Z,101014.68
2019-03-02T05:47:24.557Z,101013.47
2019-03-02T05:49:54.663Z,101018.56
2019-03-02T05:52:23.389Z,101021.16
2019-03-02T05:54:52.026Z,101025.42
2019-03-02T05:57:20.633Z,101019.50
2019-03-02T05:59:52.157Z,101024.64
2019-03-02T06:02:23.794Z,101023.80
2019-03-02T06:04:53.666Z,101021.26
2019-03-02T06:07:25.601Z,101029.28
2019-03-02T06:09:57.005Z,101029.23
2019-03-02T06:12:28.493Z,101028.39
2019-03-02T06:14:57.098Z,101022.93
2019-03-02T06:17:29.842Z,101022.02
2019-03-02T06:20:02.064Z,101026.20
2019-03-02T06:22:33.357Z,101024.49
2019-03-02T06:25:01.987Z,101025.41
2019-03-02T06:27:33.579Z,101019.34
2019-03-02T06:30:04.839Z,101025.73
2019-03-02T06:32:35.508Z,101031.32
2019-03-02T06:35:04.694Z,101037.30
2019-03-02T06:37:33.260Z,101035.95
2019-03-02T06:40:09.850Z,101043.34
2019-03-02T06:42:41.999Z,101035.12
2019-03-02T06:45:20.044Z,101041.94
2019-03-02T06:47:49.081Z,101046.20
2019-03-02T06:50:21.401Z,101042.36
2019-03-02T06:52:50.205Z,101050.89
2019-03-02T06:55:20.798Z,101044.96
2019-03-02T06:57:52.085Z,101054.78
2019-03-02T07:00:21.917Z,101047.88
2019-03-02T07:02:53.759Z,101051.64
2019-03-02T07:05:22.367Z,101058.60
2019-03-02T07:07:57.374Z,101053.91
2019-03-02T07:10:26.937Z,101058.20
2019-03-02T07:12:57.123Z,101050.52
2019-03-02T07:15:28.652Z,101060.33
2019-03-02T07:18:16.724Z,101045.39
2019-03-02T07:20:46.683Z,101050.45
2019-03-02T07:23:15.710Z,101043.11
2019-03-02T07:25:44.405Z,101046.64
2019-03-02T07:28:15.780Z,101046.16
2019-03-02T07:30:44.362Z,101054.65
2019-03-02T07:33:15.649Z,101053.78
2019-03-02T07:35:44.623Z,101054.55
2019-03-02T07:38:16.873Z,101059.22
2019-03-02T07:40:49.823Z,101059.22
2019-03-02T07:43:18.379Z,101056.27
2019-03-02T07:45:49.673Z,101054.58
2019-03-02T07:48:21.210Z,101058.28
2019-03-02T07:50:49.798Z,101053.19
2019-03-02T07:53:18.547Z,101054.84
2019-03-02T07:55:47.421Z,101055.70
2019-03-02T07:58:16.568Z,101047.48
2019-03-02T08:00:49.126Z,101055.00
2019-03-02T08:03:20.691Z,101055.00
2019-03-02T08:05:52.578Z,101050.33
2019-03-02T08:08:24.062Z,101059.02
2019-03-02T08:10:52.671Z,101052.42
2019-03-02T08:13:22.619Z,101060.39
2019-03-02T08:15:51.250Z,101059.36
2019-03-02T08:18:25.984Z,101063.69
2019-03-02T08:20:57.311Z,101055.08
2019-03-02T08:23:29.307Z,101054.23
2019-03-02T08:26:00.566Z,101054.67
2019-03-02T08:28:32.172Z,101044.36
2019-03-02T08:31:05.506Z,101046.00
2019-03-02T08:33:45.896Z,101047.51
2019-03-02T08:36:13.039Z,101042.44
2019-03-02T08:38:42.995Z,101042.11
2019-03-02T08:41:11.573Z,101042.11
2019-03-02T08:43:43.160Z,101046.36
2019-03-02T08:46:14.548Z,101045.54
2019-03-02T08:48:45.771Z,101041.23
2019-03-02T08:51:18.779Z,101038.56
2019-03-02T08:53:48.595Z,101045.20
2019-03-02T08:56:17.295Z,101043.41
2019-03-02T08:58:46.171Z,101047.21
2019-03-02T09:01:18.641Z,101046.86
2019-03-02T09:03:50.994Z,101053.87
2019-03-02T09:06:19.808Z,101054.72
2019-03-02T09:08:51.349Z,101042.27
2019-03-02T09:11:22.990Z,101040.87
2019-03-02T09:13:54.267Z,101044.28
2019-03-02T09:16:25.752Z,101038.09
2019-03-02T09:18:57.222Z,101041.89
2019-03-02T09:21:25.844Z,101046.75
2019-03-02T09:23:57.116Z,101042.36
2019-03-02T09:26:28.676Z,101042.36
2019-03-02T09:29:00.229Z,101041.00
2019-03-02T09:31:35.071Z,101053.30
2019-03-02T09:34:04.133Z,101053.30
2019-03-02T09:36:32.505Z,101051.52
2019-03-02T09:39:04.971Z,101045.62
2019-03-02T09:41:33.904Z,101053.92
2019-03-02T09:44:02.554Z,101053.92
2019-03-02T09:46:33.861Z,101047.19
2019-03-02T09:49:07.322Z,101055.30
2019-03-02T09:51:38.680Z,101052.87
2019-03-02T09:54:10.366Z,101053.45
2019-03-02T09:56:40.522Z,101049.16
2019-03-02T09:59:14.882Z,101049.16
2019-03-02T10:01:48.118Z,101053.00
2019-03-02T10:04:19.779Z,101047.11
2019-03-02T10:06:50.384Z,101049.81
2019-03-02T10:09:21.932Z,101055.10
2019-03-02T10:11:51.670Z,101057.45
2019-03-02T10:14:26.326Z,101057.45
2019-03-02T10:16:54.874Z,101058.62
2019-03-02T10:19:28.901Z,101058.62
2019-03-02T10:21:56.883Z,101054.95
2019-03-02T10:24:28.363Z,101059.80
2019-03-02T10:26:59.917Z,101051.14
2019-03-02T10:29:32.440Z,101051.14
2019-03-02T10:32:01.154Z,101062.58
2019-03-02T10:34:34.632Z,101062.77
2019-03-02T10:37:08.738Z,101067.14
2019-03-02T10:39:39.284Z,101059.86
2019-03-02T10:42:10.933Z,101068.84
2019-03-02T10:44:42.208Z,101068.84
2019-03-02T10:47:10.874Z,101064.28
2019-03-02T10:49:44.671Z,101064.28
2019-03-02T10:52:15.506Z,101056.72
2019-03-02T10:54:44.112Z,101047.19
2019-03-02T10:57:16.543Z,101047.19
2019-03-02T10:59:47.907Z,101056.32
2019-03-02T11:02:20.126Z,101046.69
2019-03-02T11:04:58.822Z,101056.20
2019-03-02T11:07:32.192Z,101056.20
2019-03-02T11:10:09.246Z,101057.85
2019-03-02T11:12:56.021Z,101059.49
2019-03-02T11:15:31.705Z,101048.58
2019-03-02T11:18:04.650Z,101048.58
2019-03-02T11:20:38.144Z,101051.70
2019-03-02T11:23:09.120Z,101051.70
2019-03-02T11:25:54.370Z,101045.44
2019-03-02T11:28:28.045Z,101050.45
2019-03-02T11:31:18.992Z,101036.66
2019-03-02T11:34:00.710Z,101045.98
2019-03-02T11:36:33.778Z,101045.98
2019-03-02T11:39:22.911Z,101051.67
2019-03-02T11:41:55.888Z,101051.67
2019-03-02T11:44:31.565Z,101055.58
2019-03-02T11:47:04.426Z,101047.51
2019-03-02T11:49:54.413Z,101047.51
2019-03-02T11:52:39.735Z,101052.37
2019-03-02T11:55:11.403Z,101046.31
2019-03-02T11:57:44.513Z,101041.74
2019-03-02T12:00:21.256Z,101041.74
2019-03-02T12:02:53.000Z,101030.28
2019-03-02T12:05:29.484Z,101024.27
2019-03-02T12:08:17.976Z,101028.77
2019-03-02T12:10:57.969Z,101025.62
2019-03-02T12:13:33.785Z,101028.20
2019-03-02T12:16:05.856Z,101021.22
2019-03-02T12:18:38.982Z,101019.05
2019-03-02T12:21:18.006Z,101013.95
2019-03-02T12:23:47.384Z,101013.92
2019-03-02T12:26:23.980Z,101010.41
2019-03-02T12:29:02.906Z,101005.30
2019-03-02T12:31:36.249Z,101006.25
2019-03-02T12:34:11.943Z,100995.50
2019-03-02T12:36:49.238Z,100986.48
2019-03-02T12:39:29.715Z,100986.33
2019-03-02T12:42:03.002Z,100983.92
2019-03-02T12:44:38.900Z,100984.39
2019-03-02T12:47:29.959Z,100984.41
2019-03-02T12:50:03.258Z,100975.91
2019-03-02T12:52:52.713Z,100962.06
2019-03-02T12:55:23.722Z,100967.58
2019-03-02T12:57:59.401Z,100971.08
2019-03-02T13:00:44.806Z,100977.10
2019-03-02T13:03:34.647Z,100973.44
2019-03-02T13:06:04.915Z,100975.88
2019-03-02T13:08:50.156Z,100975.76
2019-03-02T13:11:25.750Z,100970.77
2019-03-02T13:14:14.750Z,100975.63
2019-03-02T13:17:03.635Z,100974.30
2019-03-02T13:22:31.108Z,100968.05
2019-03-02T13:25:20.432Z,100964.72
2019-03-02T13:27:56.869Z,100965.17
2019-03-02T13:30:36.975Z,100961.42
2019-03-02T13:33:30.148Z,100964.08
2019-03-02T13:36:07.938Z,100968.69
2019-03-02T13:38:42.846Z,100967.17
2019-03-02T13:41:18.832Z,100959.91
2019-03-02T13:43:51.470Z,100956.61
2019-03-02T13:46:24.464Z,100962.50
2019-03-02T13:49:05.859Z,100954.12
2019-03-02T13:51:38.821Z,100947.53
2019-03-02T13:54:11.844Z,100947.66
2019-03-02T13:56:50.603Z,100937.62
2019-03-02T13:59:27.262Z,100934.92
2019-03-02T14:02:04.116Z,100944.04
2019-03-02T14:04:53.857Z,100937.62
2019-03-02T14:07:31.094Z,100935.88
2019-03-02T14:10:04.583Z,100928.31
2019-03-02T14:12:55.163Z,100928.31
2019-03-02T14:15:25.578Z,100928.31
2019-03-02T14:18:15.080Z,100927.10
2019-03-02T14:20:48.158Z,100927.19
2019-03-02T14:23:31.975Z,100922.86
2019-03-02T14:26:08.573Z,100926.49
2019-03-02T14:28:48.067Z,100919.34
2019-03-02T14:31:27.246Z,100922.30
2019-03-02T14:34:09.159Z,100919.27
2019-03-02T14:36:42.387Z,100918.45
2019-03-02T14:39:16.013Z,100913.59
2019-03-02T14:41:51.705Z,100913.59
2019-03-02T14:44:33.457Z,100915.52
2019-03-02T14:47:09.524Z,100917.81
2019-03-02T14:49:43.237Z,100916.84
2019-03-02T14:52:32.884Z,100917.97
2019-03-02T14:55:01.513Z,100908.80
2019-03-02T14:57:31.993Z,100911.73
2019-03-02T15:00:05.132Z,100910.08
2019-03-02T15:05:26.035Z,100904.56
2019-03-02T15:08:01.713Z,100895.56
2019-03-02T15:10:37.868Z,100898.50
2019-03-02T15:13:26.039Z,100896.56
2019-03-02T15:16:15.387Z,100896.56
2019-03-02T15:19:06.529Z,100899.83
2019-03-02T15:21:44.410Z,100904.52
2019-03-02T15:24:20.931Z,100908.20
2019-03-02T15:27:08.959Z,100908.20
2019-03-02T15:29:46.393Z,100901.90
2019-03-02T15:32:25.728Z,100904.98
2019-03-02T15:34:59.024Z,100904.98
2019-03-02T15:37:38.270Z,100906.21
2019-03-02T15:40:28.783Z,100901.45
2019-03-02T15:43:08.081Z,100901.19
2019-03-02T15:45:55.441Z,100902.31
2019-03-02T15:48:27.185Z,100901.82
2019-03-02T15:51:11.201Z,100908.91
2019-03-02T15:53:59.168Z,100915.70
2019-03-02T15:56:45.301Z,100911.08
2019-03-02T15:59:37.340Z,100917.61
2019-03-02T16:02:10.966Z,100909.76
2019-03-02T16:04:52.673Z,100906.07
2019-03-02T16:07:22.947Z,100907.38
2019-03-02T16:09:53.221Z,100906.27
2019-03-02T16:12:29.225Z,100893.59
2019-03-02T16:15:05.083Z,100893.16
2019-03-02T16:17:53.064Z,100893.16
2019-03-02T16:20:35.345Z,100888.67
2019-03-02T16:23:09.661Z,100882.80
2019-03-02T16:26:02.676Z,100887.63
2019-03-02T16:28:54.047Z,100887.63
2019-03-02T16:31:41.267Z,100892.34
2019-03-02T16:34:16.430Z,100895.11
2019-03-02T16:36:49.523Z,100884.82
2019-03-02T16:39:39.201Z,100884.82
2019-03-02T16:42:12.021Z,100879.15
2019-03-02T16:45:01.149Z,100879.15
2019-03-02T16:47:34.352Z,100882.17
2019-03-02T16:50:16.941Z,100882.17
2019-03-02T16:52:50.811Z,100880.92
2019-03-02T16:55:21.170Z,100876.58
2019-03-02T16:57:56.936Z,100870.04
2019-03-02T17:00:30.561Z,100877.13
2019-03-02T17:06:01.292Z,100870.09
2019-03-02T17:08:40.099Z,100883.73
2019-03-02T17:11:16.109Z,100880.38
2019-03-02T17:14:01.055Z,100880.75
2019-03-02T17:16:49.543Z,100870.09
2019-03-02T17:19:28.373Z,100870.09
2019-03-02T17:21:59.846Z,100886.02
2019-03-02T17:24:38.709Z,100863.83
2019-03-02T17:27:11.947Z,100863.83
2019-03-02T17:29:54.262Z,100859.97
2019-03-02T17:32:41.116Z,100872.79
2019-03-02T17:35:32.723Z,100872.79
2019-03-02T17:38:17.383Z,100868.55
2019-03-02T17:40:53.757Z,100869.21
2019-03-02T17:43:24.044Z,100864.59
2019-03-02T17:45:54.341Z,100859.52
2019-03-02T17:48:38.043Z,100868.60
2019-03-02T17:51:15.220Z,100868.23
2019-03-02T17:53:51.158Z,100874.30
2019-03-02T17:56:26.843Z,100874.30
2019-03-02T17:59:04.167Z,100870.50
2019-03-02T18:01:34.621Z,100864.05
2019-03-02T18:04:21.199Z,100867.45
2019-03-02T18:06:52.296Z,100872.06
2019-03-02T18:09:25.240Z,100868.27
2019-03-02T18:12:03.922Z,100868.27
2019-03-02T18:14:34.853Z,100867.07
2019-03-02T18:17:05.576Z,100873.79
2019-03-02T18:19:34.269Z,100871.69
2019-03-02T18:22:06.369Z,100874.27
2019-03-02T18:24:35.446Z,100870.80
2019-03-02T18:27:03.810Z,100869.58
2019-03-02T18:29:32.429Z,100860.69
2019-03-02T18:32:02.281Z,100868.80
2019-03-02T18:34:31.181Z,100869.58
2019-03-02T18:36:59.711Z,100872.33
2019-03-02T18:39:28.559Z,100870.67
2019-03-02T18:41:58.133Z,100868.56
2019-03-02T18:44:27.890Z,100868.56
2019-03-02T18:46:59.754Z,100860.87
2019-03-02T18:49:30.453Z,100865.65
2019-03-02T18:52:03.877Z,100861.78
2019-03-02T18:54:32.486Z,100861.88
2019-03-02T18:57:01.197Z,100864.87
2019-03-02T18:59:32.978Z,100861.95
2019-03-02T19:02:05.012Z,100866.12
2019-03-02T19:04:33.597Z,100865.24
2019-03-02T19:07:03.315Z,100861.19
2019-03-02T19:09:33.436Z,100861.19
2019-03-02T19:12:02.060Z,100853.37
2019-03-02T19:14:30.692Z,100842.53
2019-03-02T19:16:59.451Z,100854.09
2019-03-02T19:19:28.089Z,100850.37
2019-03-02T19:21:56.802Z,100847.19
2019-03-02T19:24:25.445Z,100846.33
2019-03-02T19:26:54.033Z,100839.12
2019-03-02T19:29:22.661Z,100839.27
2019-03-02T19:31:51.275Z,100831.33
2019-03-02T19:34:19.895Z,100833.00
2019-03-02T19:36:51.586Z,100827.71
2019-03-02T19:39:22.633Z,100827.71
2019-03-02T19:41:51.361Z,100827.34
2019-03-02T19:44:22.971Z,100824.81
2019-03-02T19:46:51.572Z,100823.14
2019-03-02T19:49:20.294Z,100819.30
2019-03-02T19:51:49.710Z,100812.44
2019-03-02T19:54:18.347Z,100813.30
2019-03-02T19:56:46.955Z,100810.73
2019-03-02T19:59:15.581Z,100810.66
2019-03-02T20:01:50.235Z,100802.63
2019-03-02T20:04:18.959Z,100801.37
2019-03-02T20:06:47.571Z,100793.36
2019-03-02T20:09:16.280Z,100794.58
2019-03-02T20:11:44.891Z,100802.31
2019-03-02T20:14:16.571Z,100800.62
2019-03-02T20:16:45.287Z,100794.25
2019-03-02T20:19:16.966Z,100797.66
2019-03-02T20:21:45.783Z,100797.22
2019-03-02T20:24:14.396Z,100805.39
2019-03-02T20:26:43.158Z,100798.08
2019-03-02T20:29:11.818Z,100803.70
2019-03-02T20:31:40.445Z,100803.70
2019-03-02T20:34:12.027Z,100802.38
2019-03-02T20:36:43.658Z,100798.94
2019-03-02T20:39:12.242Z,100799.86
2019-03-02T20:41:40.853Z,100802.41
2019-03-02T20:44:09.487Z,100805.47
2019-03-02T20:46:40.479Z,100808.88
2019-03-02T20:49:15.142Z,100800.72
2019-03-02T20:51:46.838Z,100795.63
2019-03-02T20:54:15.553Z,100796.01
2019-03-02T20:56:45.807Z,100795.59
2019-03-02T20:59:17.379Z,100783.22
2019-03-02T21:01:46.002Z,100787.95
2019-03-02T21:04:14.601Z,100789.66
2019-03-02T21:06:43.311Z,100788.38
2019-03-02T21:09:11.891Z,100781.50
2019-03-02T21:11:40.533Z,100772.49
2019-03-02T21:14:15.306Z,100774.17
2019-03-02T21:16:44.028Z,100786.19
2019-03-02T21:19:16.019Z,100783.63
2019-03-02T21:21:44.730Z,100787.48
2019-03-02T21:24:13.352Z,100776.77
2019-03-02T21:26:41.971Z,100776.81
2019-03-02T21:29:10.578Z,100772.49
2019-03-02T21:31:41.963Z,100768.69
2019-03-02T21:34:13.647Z,100766.45
2019-03-02T21:36:42.664Z,100760.40
2019-03-02T21:39:11.485Z,100760.40
2019-03-02T21:41:40.395Z,100765.54
2019-03-02T21:44:11.881Z,100762.62
2019-03-02T21:46:40.480Z,100756.59
2019-03-02T21:49:13.611Z,100756.55
2019-03-02T21:51:42.584Z,100746.12
2019-03-02T21:54:14.318Z,100743.86
2019-03-02T21:56:42.918Z,100746.36
2019-03-02T21:59:14.396Z,100732.17
2019-03-02T22:01:43.016Z,100728.30
2019-03-02T22:04:14.602Z,100726.48
2019-03-02T22:06:46.194Z,100728.53
2019-03-02T22:09:17.783Z,100722.45
2019-03-02T22:11:49.769Z,100719.80
2019-03-02T22:14:18.357Z,100720.99
2019-03-02T22:16:46.982Z,100714.53
2019-03-02T22:19:15.599Z,100706.34
2019-03-02T22:21:44.229Z,100702.41
2019-03-02T22:24:12.943Z,100689.48
2019-03-02T22:26:44.828Z,100687.63
2019-03-02T22:29:16.815Z,100679.11
2019-03-02T22:31:45.428Z,100670.52
2019-03-02T22:34:16.715Z,100671.63
2019-03-02T22:36:48.509Z,100665.59
2019-03-02T22:39:20.082Z,100656.58
2019-03-02T22:41:51.575Z,100659.83
2019-03-02T22:44:20.213Z,100652.06
2019-03-02T22:46:48.832Z,100655.38
2019-03-02T22:49:20.537Z,100653.72
2019-03-02T22:51:49.154Z,100646.16
2019-03-02T22:54:20.832Z,100642.45
2019-03-02T22:56:49.542Z,100639.51
2019-03-02T22:59:21.739Z,100644.19
2019-03-02T23:02:02.253Z,100648.89
2019-03-02T23:04:34.012Z,100649.08
2019-03-02T23:07:05.592Z,100658.50
2019-03-02T23:09:37.199Z,100665.80
2019-03-02T23:12:05.814Z,100657.90
2019-03-02T23:14:34.776Z,100654.70
2019-03-02T23:17:08.114Z,100652.84
2019-03-02T23:19:36.443Z,100651.58
2019-03-02T23:22:08.407Z,100652.16
2019-03-02T23:24:38.860Z,100647.04
2019-03-02T23:27:10.644Z,100647.42
2019-03-02T23:29:42.643Z,100641.38
2019-03-02T23:32:11.217Z,100636.55
2019-03-02T23:34:42.528Z,100623.51
2019-03-02T23:37:11.138Z,100625.45
2019-03-02T23:39:42.613Z,100636.49
2019-03-02T23:42:13.989Z,100621.42
2019-03-02T23:44:45.363Z,100637.58
2019-03-02T23:47:16.943Z,100631.89
2019-03-02T23:49:48.518Z,100613.72
2019-03-02T23:52:17.130Z,100610.55
2019-03-02T23:54:45.682Z,100610.81
2019-03-02T23:57:15.076Z,100599.26
2019-03-02T23:59:44.098Z,100596.23
